Trinity, Alabama
Current Conditions -  °F | °C
As of 3:53 PM on Thursday 18 Dec 2014 (Local Time) from KDCU Reporting Station
Overcast Overcast  
Wind Chill: 44°   Ceiling: 4500
Heat Index: 44°   Visibility: 10mi
Dew Point: 34°   Wind: 0mph
Humidity: 68%   Direction: NA
Pressure: 30.18"   Gusts: NA
Location:  34.61°N, 87.09°W
Report Text: KDCU 182153Z AUTO 00000KT 10SM OVC045 07/01 A3018 RMK AO2 SLP222 T00670011
Loading
Personal Weather Stations






























Interactive Weather Map New forecast layout! Learn more

10-Day Weather Forecast

Advertisements
Track Severe Weather on mobile